Time;durP1;ratioP1;P1;durP2;ratioP2;P2;SDS_P1;SDS_P2;PMS_P1;PMS_P2;Temp;Humidity;BMP_temperature;BMP_pressure;BME280_temperature;BME280_humidity;BME280_pressure;Samples;Min_cycle;Max_cycle;Signal;HPM_P1;HPM_P2
2021/07/12 00:01:03;;;;;;;23.67;17.30;;;;;;;16.98;97.88;100297.41;5029937;28;20351;-61
2021/07/12 00:03:29;;;;;;;28.13;18.83;;;;;;;16.94;97.79;100290.56;5042001;28;20053;-60
2021/07/12 00:05:56;;;;;;;23.80;17.65;;;;;;;16.91;97.99;100291.66;5040309;28;20053;-61
2021/07/12 00:08:22;;;;;;;20.17;16.63;;;;;;;16.87;98.12;100284.81;5037462;28;20741;-61
2021/07/12 00:10:49;;;;;;;22.25;17.20;;;;;;;16.83;98.17;100283.34;5032339;28;20505;-60
2021/07/12 00:13:16;;;;;;;21.95;16.75;;;;;;;16.81;98.52;100283.47;5037385;28;20073;-60
2021/07/12 00:15:43;;;;;;;24.05;17.38;;;;;;;16.79;99.11;100284.53;5042130;28;20054;-60
2021/07/12 00:18:09;;;;;;;21.65;17.38;;;;;;;16.79;98.97;100280.06;5036725;28;20053;-62
2021/07/12 00:20:36;;;;;;;22.50;17.45;;;;;;;16.77;98.97;100283.81;5040249;28;20428;-62
2021/07/12 00:23:03;;;;;;;21.48;16.88;;;;;;;16.74;99.21;100276.84;5039545;28;20051;-62
2021/07/12 00:25:30;;;;;;;24.25;17.80;;;;;;;16.74;99.53;100284.88;5030877;28;20432;-62
2021/07/12 00:27:58;;;;;;;23.55;17.60;;;;;;;16.73;99.41;100285.00;5039132;28;20358;-62
2021/07/12 00:30:25;;;;;;;26.10;19.23;;;;;;;16.71;99.41;100278.91;5026996;28;20131;-62
2021/07/12 00:32:56;;;;;;;26.48;18.17;;;;;;;16.67;99.58;100275.63;5029948;28;20042;-62
2021/07/12 00:35:23;;;;;;;26.45;18.60;;;;;;;16.64;99.39;100285.69;5034373;28;20472;-62
2021/07/12 00:37:51;;;;;;;24.17;18.17;;;;;;;16.60;99.62;100273.47;5039832;28;20049;-62
2021/07/12 00:40:19;;;;;;;25.55;18.30;;;;;;;16.58;99.81;100275.41;5024575;28;20057;-62
2021/07/12 00:42:46;;;;;;;26.63;18.52;;;;;;;16.55;100.00;100279.16;5034109;28;20048;-62
2021/07/12 00:45:25;;;;;;;27.20;18.50;;;;;;;16.48;99.76;100273.41;5036691;28;20049;-62
2021/07/12 00:47:53;;;;;;;23.88;18.10;;;;;;;16.45;100.00;100272.78;5030156;28;20053;-61
2021/07/12 00:50:22;;;;;;;25.05;17.42;;;;;;;16.44;100.00;100269.25;5033046;28;20048;-62
2021/07/12 00:52:50;;;;;;;23.98;17.73;;;;;;;16.45;100.00;100262.09;5041494;28;20153;-61
2021/07/12 00:55:39;;;;;;;26.23;17.65;;;;;;;16.41;100.00;100256.09;5036729;28;20059;-62
2021/07/12 00:58:09;;;;;;;24.40;18.48;;;;;;;16.38;100.00;100255.47;5034224;28;20655;-61
2021/07/12 01:00:37;;;;;;;23.13;17.17;;;;;;;16.34;100.00;100257.53;5044149;28;20053;-62
2021/07/12 01:03:04;;;;;;;23.98;18.10;;;;;;;16.33;100.00;100263.00;5029046;28;20712;-61
2021/07/12 01:05:31;;;;;;;24.90;18.55;;;;;;;16.33;100.00;100260.31;5034865;28;20057;-61
2021/07/12 01:07:59;;;;;;;24.23;18.13;;;;;;;16.29;100.00;100257.00;5044297;28;20527;-59
2021/07/12 01:10:26;;;;;;;26.98;18.00;;;;;;;16.27;100.00;100248.25;5031554;28;20053;-61
2021/07/12 01:12:56;;;;;;;25.33;17.85;;;;;;;16.26;100.00;100251.03;5038156;28;20526;-62
2021/07/12 01:15:28;;;;;;;28.33;18.95;;;;;;;16.23;100.00;100251.25;5038399;28;20046;-60
2021/07/12 01:18:01;;;;;;;23.13;16.23;;;;;;;16.20;100.00;100241.66;5038097;28;20049;-60
2021/07/12 01:21:02;;;;;;;25.17;17.85;;;;;;;16.24;100.00;100239.59;5032872;28;20055;-60
2021/07/12 01:23:53;;;;;;;30.77;17.88;;;;;;;16.19;100.00;100239.09;5018157;28;20056;-60
2021/07/12 01:26:45;;;;;;;24.35;17.38;;;;;;;16.16;100.00;100247.31;5046841;28;20132;-61
2021/07/12 01:29:21;;;;;;;22.15;16.52;;;;;;;16.12;100.00;100239.53;5037286;28;20045;-62
2021/07/12 01:31:59;;;;;;;26.25;17.95;;;;;;;16.11;100.00;100237.81;5038795;28;20045;-60
2021/07/12 01:34:50;;;;;;;23.23;17.02;;;;;;;16.08;100.00;100240.69;5036968;28;20050;-60
2021/07/12 01:37:27;;;;;;;24.75;16.65;;;;;;;16.08;100.00;100239.84;5036520;28;20056;-60
2021/07/12 01:40:03;;;;;;;24.52;16.35;;;;;;;16.08;100.00;100232.69;5039889;28;20045;-60
2021/07/12 01:42:37;;;;;;;22.90;15.57;;;;;;;16.10;100.00;100235.25;5049607;28;20054;-60
2021/07/12 01:45:11;;;;;;;24.77;15.98;;;;;;;16.09;100.00;100236.22;5040594;28;20052;-60
2021/07/12 01:47:50;;;;;;;20.30;16.15;;;;;;;16.04;100.00;100241.06;5041106;28;20053;-60
2021/07/12 01:50:22;;;;;;;24.48;16.30;;;;;;;16.00;100.00;100227.06;5038502;28;20052;-60
2021/07/12 01:53:13;;;;;;;22.00;15.30;;;;;;;15.98;100.00;100237.00;5030509;28;20488;-60
2021/07/12 01:55:53;;;;;;;26.52;16.83;;;;;;;15.99;100.00;100237.84;5038529;28;20069;-60
2021/07/12 01:58:26;;;;;;;22.13;17.13;;;;;;;15.97;100.00;100237.09;5029061;28;20041;-60
2021/07/12 02:00:52;;;;;;;23.00;17.40;;;;;;;15.95;100.00;100225.69;5041282;28;20057;-60
2021/07/12 02:03:22;;;;;;;25.60;17.15;;;;;;;15.94;100.00;100213.28;5034060;28;20412;-60
2021/07/12 02:05:51;;;;;;;22.52;16.83;;;;;;;15.94;100.00;100219.47;5036181;28;20083;-61
2021/07/12 02:08:21;;;;;;;26.35;18.15;;;;;;;15.91;100.00;100216.16;5047854;28;20045;-60
2021/07/12 02:10:51;;;;;;;20.17;15.50;;;;;;;15.88;100.00;100227.09;5045546;28;20057;-61
2021/07/12 02:13:18;;;;;;;24.05;16.90;;;;;;;15.88;100.00;100222.59;5036198;28;20067;-60
2021/07/12 02:15:48;;;;;;;24.35;17.10;;;;;;;15.88;100.00;100224.44;5035969;28;20052;-60
2021/07/12 02:18:16;;;;;;;21.25;16.35;;;;;;;15.85;100.00;100214.81;5042893;28;20048;-60
2021/07/12 02:20:47;;;;;;;22.02;15.82;;;;;;;15.84;100.00;100202.41;5051818;28;20076;-61
2021/07/12 02:23:15;;;;;;;22.40;16.15;;;;;;;15.83;100.00;100206.06;5049754;28;20120;-61
2021/07/12 02:25:43;;;;;;;22.63;16.60;;;;;;;15.83;100.00;100203.38;5040077;28;20049;-60
2021/07/12 02:28:11;;;;;;;22.65;15.30;;;;;;;15.81;100.00;100201.78;5030158;28;20050;-61
2021/07/12 02:30:39;;;;;;;27.00;15.73;;;;;;;15.78;100.00;100194.84;5037859;28;20054;-60
2021/07/12 02:33:05;;;;;;;20.38;15.02;;;;;;;15.74;100.00;100196.88;5034206;28;20416;-60
2021/07/12 02:35:33;;;;;;;19.10;14.48;;;;;;;15.71;100.00;100199.78;5038523;28;20053;-61
2021/07/12 02:38:00;;;;;;;20.58;14.30;;;;;;;15.65;100.00;100202.03;5029257;28;20046;-61
2021/07/12 02:40:27;;;;;;;21.90;14.93;;;;;;;15.61;100.00;100203.19;5038198;28;20061;-61
2021/07/12 02:42:57;;;;;;;18.48;13.55;;;;;;;15.56;100.00;100211.53;5029939;28;20077;-62
2021/07/12 02:45:26;;;;;;;17.42;13.73;;;;;;;15.51;100.00;100197.63;5041373;28;20053;-61
2021/07/12 02:47:53;;;;;;;19.33;13.93;;;;;;;15.51;100.00;100202.13;5030159;28;20053;-60
2021/07/12 02:50:20;;;;;;;18.20;13.65;;;;;;;15.49;100.00;100207.56;5034348;28;20530;-60
2021/07/12 02:53:09;;;;;;;19.80;14.52;;;;;;;15.49;100.00;100202.22;5035820;28;20118;-61
2021/07/12 02:55:35;;;;;;;17.38;13.25;;;;;;;15.47;100.00;100209.47;5050287;28;20061;-60
2021/07/12 02:58:02;;;;;;;18.67;13.20;;;;;;;15.46;100.00;100202.44;5049426;28;20057;-61
2021/07/12 03:00:28;;;;;;;19.02;12.52;;;;;;;15.43;100.00;100197.31;5055542;28;20405;-61
2021/07/12 03:02:55;;;;;;;16.95;12.60;;;;;;;15.41;100.00;100196.59;5048413;28;20049;-61
2021/07/12 03:05:21;;;;;;;15.82;12.13;;;;;;;15.38;100.00;100200.31;5047680;28;20053;-58
2021/07/12 03:07:54;;;;;;;16.52;12.27;;;;;;;15.40;100.00;100193.06;5049391;28;20500;-61
2021/07/12 03:10:30;;;;;;;15.20;11.80;;;;;;;15.41;100.00;100188.56;5044114;28;20052;-60
2021/07/12 03:13:00;;;;;;;14.60;11.27;;;;;;;15.41;100.00;100191.25;5045963;28;20411;-59
2021/07/12 03:15:40;;;;;;;15.07;11.95;;;;;;;15.37;100.00;100181.75;5058077;28;20504;-60
2021/07/12 03:18:16;;;;;;;16.35;11.77;;;;;;;15.33;100.00;100174.91;5049243;28;20051;-59
2021/07/12 03:20:45;;;;;;;15.10;11.40;;;;;;;15.31;100.00;100168.81;5043371;28;20060;-62
2021/07/12 03:23:14;;;;;;;14.30;10.60;;;;;;;15.29;100.00;100168.91;5053469;28;20053;-62
2021/07/12 03:25:47;;;;;;;15.13;10.57;;;;;;;15.26;100.00;100173.63;5061640;28;20083;-62
2021/07/12 03:28:16;;;;;;;15.43;11.05;;;;;;;15.27;100.00;100168.16;5045062;28;20041;-62
2021/07/12 03:30:44;;;;;;;11.82;10.02;;;;;;;15.27;100.00;100170.84;5064722;28;20048;-60
2021/07/12 03:33:12;;;;;;;14.30;10.05;;;;;;;15.26;100.00;100168.31;5035088;28;20052;-61
2021/07/12 03:35:44;;;;;;;13.00;10.43;;;;;;;15.24;100.00;100163.06;5049516;28;20511;-62
2021/07/12 03:38:13;;;;;;;12.57;10.30;;;;;;;15.25;100.00;100161.25;5051781;28;20041;-60
2021/07/12 03:40:40;;;;;;;12.20;9.98;;;;;;;15.19;100.00;100156.34;5053622;28;20080;-59
2021/07/12 03:43:09;;;;;;;15.07;9.80;;;;;;;15.20;100.00;100163.38;5045874;28;20049;-60
2021/07/12 03:45:38;;;;;;;12.88;10.18;;;;;;;15.20;100.00;100163.38;5053137;28;20049;-62
2021/07/12 03:48:05;;;;;;;13.70;10.75;;;;;;;15.18;100.00;100165.31;5048506;28;20045;-61
2021/07/12 03:50:32;;;;;;;12.48;10.60;;;;;;;15.17;100.00;100175.13;5052822;28;20048;-59
2021/07/12 03:53:01;;;;;;;11.77;9.85;;;;;;;15.21;100.00;100165.09;5067168;28;20056;-61
2021/07/12 03:55:30;;;;;;;12.40;10.20;;;;;;;15.26;100.00;100178.97;5040506;28;20140;-60
2021/07/12 03:57:58;;;;;;;13.63;11.20;;;;;;;15.31;100.00;100177.69;5025232;28;20046;-61
2021/07/12 04:00:27;;;;;;;15.88;11.13;;;;;;;15.36;100.00;100183.56;5031131;28;20056;-61
2021/07/12 04:02:54;;;;;;;13.85;10.80;;;;;;;15.43;100.00;100174.13;5040138;28;20061;-61
2021/07/12 04:05:25;;;;;;;14.10;10.73;;;;;;;15.52;100.00;100169.97;5041470;28;20052;-60
2021/07/12 04:07:52;;;;;;;13.32;10.80;;;;;;;15.55;100.00;100169.81;5029040;28;20049;-61
2021/07/12 04:10:19;;;;;;;13.73;11.23;;;;;;;15.58;100.00;100166.94;5032424;28;20088;-62
2021/07/12 04:12:47;;;;;;;16.27;12.05;;;;;;;15.66;100.00;100161.03;5030645;28;20049;-60
2021/07/12 04:15:14;;;;;;;15.00;11.88;;;;;;;15.64;99.74;100150.44;5031327;28;20397;-59
2021/07/12 04:17:42;;;;;;;16.75;12.18;;;;;;;15.60;100.00;100146.28;5031608;28;20045;-57
2021/07/12 04:20:09;;;;;;;14.82;11.73;;;;;;;15.57;100.00;100140.34;5031392;28;20049;-59
2021/07/12 04:22:36;;;;;;;16.48;11.85;;;;;;;15.53;100.00;100139.66;5030702;28;20052;-61
2021/07/12 04:25:04;;;;;;;15.00;11.48;;;;;;;15.56;100.00;100149.31;5027380;28;20050;-61
2021/07/12 04:27:31;;;;;;;14.93;11.38;;;;;;;15.58;100.00;100148.25;5024057;28;20042;-60
2021/07/12 04:29:58;;;;;;;18.23;12.05;;;;;;;15.58;100.00;100139.38;5030343;28;20048;-58
2021/07/12 04:32:24;;;;;;;14.30;11.70;;;;;;;15.56;100.00;100147.50;5031083;28;20059;-59
2021/07/12 04:34:51;;;;;;;15.63;11.52;;;;;;;15.55;100.00;100142.22;5036235;28;20520;-62
2021/07/12 04:37:17;;;;;;;14.52;11.75;;;;;;;15.58;100.00;100148.25;5032550;28;20050;-61
2021/07/12 04:39:43;;;;;;;12.63;10.65;;;;;;;15.62;100.00;100149.69;5024139;28;20046;-59
2021/07/12 04:42:10;;;;;;;13.18;11.35;;;;;;;15.68;100.00;100154.63;5031140;28;20426;-62
2021/07/12 04:44:36;;;;;;;14.35;11.35;;;;;;;15.71;100.00;100145.53;5023671;28;20049;-61
2021/07/12 04:47:03;;;;;;;17.02;11.93;;;;;;;15.75;100.00;100150.53;5030462;28;20440;-62
2021/07/12 04:49:30;;;;;;;14.43;11.10;;;;;;;15.81;100.00;100143.91;5026935;28;20053;-61
2021/07/12 04:51:56;;;;;;;16.52;11.75;;;;;;;15.88;99.95;100141.66;5030979;28;20405;-62
2021/07/12 04:54:23;;;;;;;16.17;11.70;;;;;;;15.94;99.73;100147.38;5046961;28;20053;-62
2021/07/12 04:56:50;;;;;;;17.85;13.02;;;;;;;16.03;99.46;100145.88;5047581;28;20704;-59
2021/07/12 04:59:23;;;;;;;16.13;12.95;;;;;;;16.11;98.50;100147.00;5051038;28;20041;-59
2021/07/12 05:01:49;;;;;;;14.15;11.60;;;;;;;16.17;98.17;100145.69;5048640;28;20063;-61
2021/07/12 05:04:16;;;;;;;17.40;12.40;;;;;;;16.26;97.91;100146.81;5048687;28;20174;-60
2021/07/12 05:06:43;;;;;;;17.85;12.77;;;;;;;16.33;97.78;100138.25;5047567;28;20044;-61
2021/07/12 05:09:10;;;;;;;14.10;11.98;;;;;;;16.41;97.50;100138.50;5057686;28;20060;-61
2021/07/12 05:11:36;;;;;;;17.02;12.77;;;;;;;16.46;97.06;100141.69;5050725;28;20049;-61
2021/07/12 05:14:05;;;;;;;17.20;11.68;;;;;;;16.49;96.59;100136.13;5035926;28;20059;-61
2021/07/12 05:16:33;;;;;;;12.93;11.02;;;;;;;16.56;96.81;100141.00;5041997;28;20063;-60
2021/07/12 05:19:00;;;;;;;15.60;11.32;;;;;;;16.60;96.32;100131.78;5040013;28;20683;-61
2021/07/12 05:21:28;;;;;;;14.68;11.05;;;;;;;16.68;96.23;100134.78;5039581;28;20531;-60
2021/07/12 05:23:56;;;;;;;12.77;11.15;;;;;;;16.63;94.63;100126.25;5039858;28;20053;-62
2021/07/12 05:26:23;;;;;;;14.70;11.32;;;;;;;16.57;94.66;100127.50;5041246;28;20555;-61
2021/07/12 05:28:50;;;;;;;13.20;10.30;;;;;;;16.57;95.49;100132.00;5041794;28;20075;-62
2021/07/12 05:31:16;;;;;;;13.50;9.68;;;;;;;16.60;95.84;100129.09;5045976;28;20421;-60
2021/07/12 05:33:43;;;;;;;11.27;10.05;;;;;;;16.66;96.04;100126.88;5042188;28;20056;-61
2021/07/12 05:36:10;;;;;;;13.25;9.13;;;;;;;16.73;95.71;100124.56;5035126;28;20059;-61
2021/07/12 05:38:36;;;;;;;11.77;9.60;;;;;;;16.74;94.21;100128.94;5041838;28;20060;-61
2021/07/12 05:41:03;;;;;;;10.80;9.40;;;;;;;16.74;93.81;100126.25;5047834;28;20583;-61
2021/07/12 05:43:29;;;;;;;12.27;9.15;;;;;;;16.73;93.87;100130.75;5042078;28;20534;-63
2021/07/12 05:45:56;;;;;;;12.50;8.88;;;;;;;16.74;94.01;100129.78;5039567;28;20508;-60
2021/07/12 05:48:22;;;;;;;9.38;8.38;;;;;;;16.79;92.74;100121.44;5036302;28;20041;-61
2021/07/12 05:50:49;;;;;;;11.27;8.93;;;;;;;16.82;92.92;100123.88;5051807;28;20497;-60
2021/07/12 05:53:16;;;;;;;14.52;9.23;;;;;;;16.74;92.35;100118.25;5035186;28;20049;-61
2021/07/12 05:55:43;;;;;;;10.30;8.63;;;;;;;16.80;92.19;100125.81;5041866;28;20436;-61
2021/07/12 05:58:10;;;;;;;10.18;8.68;;;;;;;16.87;92.64;100119.00;5038393;28;20060;-61
2021/07/12 06:00:37;;;;;;;10.15;8.80;;;;;;;17.00;92.45;100117.06;5040625;28;20574;-60
2021/07/12 06:03:03;;;;;;;11.63;9.25;;;;;;;17.14;91.61;100116.88;5037888;28;20049;-61
2021/07/12 06:05:30;;;;;;;10.90;7.63;;;;;;;17.32;91.11;100113.69;5048498;28;20583;-61
2021/07/12 06:07:56;;;;;;;10.48;7.97;;;;;;;17.56;91.15;100109.06;5035268;28;20071;-61
2021/07/12 06:10:23;;;;;;;10.05;7.32;;;;;;;17.78;88.28;100111.75;5049266;28;20060;-61
2021/07/12 06:12:50;;;;;;;9.43;7.22;;;;;;;18.10;87.35;100110.94;5042443;28;20070;-62
2021/07/12 06:15:16;;;;;;;7.82;6.75;;;;;;;18.53;85.71;100113.56;5044301;28;20056;-61
2021/07/12 06:17:45;;;;;;;8.00;6.70;;;;;;;18.90;83.09;100104.09;5039776;28;20063;-61
2021/07/12 06:20:15;;;;;;;9.05;6.43;;;;;;;19.26;81.28;100102.75;5051961;28;20157;-64
2021/07/12 06:22:42;;;;;;;8.85;6.57;;;;;;;19.44;78.22;100102.97;5048459;28;20051;-60
2021/07/12 06:25:10;;;;;;;7.40;6.57;;;;;;;19.41;76.79;100105.06;5048168;28;20064;-61
2021/07/12 06:27:36;;;;;;;6.75;6.07;;;;;;;19.41;77.00;100099.69;5052360;28;20048;-62
2021/07/12 06:30:05;;;;;;;8.95;6.43;;;;;;;19.39;77.22;100101.66;5042436;28;20044;-59
2021/07/12 06:32:32;;;;;;;8.65;6.55;;;;;;;19.34;77.37;100090.50;5045419;28;20136;-61
2021/07/12 06:34:59;;;;;;;9.85;7.15;;;;;;;19.31;78.37;100105.03;5051298;28;20121;-62
2021/07/12 06:37:25;;;;;;;10.65;6.80;;;;;;;19.38;77.77;100098.13;5042095;28;20049;-65
2021/07/12 06:39:52;;;;;;;7.55;6.68;;;;;;;19.21;78.26;100091.53;5044323;28;20128;-64
2021/07/12 06:42:18;;;;;;;7.45;6.60;;;;;;;19.21;78.02;100094.22;5042905;28;20049;-60
2021/07/12 06:44:45;;;;;;;8.23;6.70;;;;;;;19.42;78.70;100090.66;5032780;28;20052;-62
2021/07/12 06:47:11;;;;;;;8.35;6.43;;;;;;;19.70;77.89;100105.19;5045491;28;20045;-62
2021/07/12 06:49:38;;;;;;;7.35;6.63;;;;;;;19.90;77.37;100097.03;5050646;28;20059;-62
2021/07/12 06:52:05;;;;;;;12.35;6.78;;;;;;;20.15;75.70;100100.16;5045609;28;20045;-61
2021/07/12 06:54:31;;;;;;;11.93;7.13;;;;;;;20.24;75.68;100099.34;5055966;28;20057;-61
2021/07/12 06:56:58;;;;;;;8.23;6.63;;;;;;;20.25;74.76;100104.59;5051800;28;20053;-63
2021/07/12 06:59:24;;;;;;;8.63;6.10;;;;;;;20.27;74.76;100093.69;5050140;28;20045;-63
2021/07/12 07:01:51;;;;;;;7.45;6.63;;;;;;;20.32;75.06;100105.69;5049208;28;20407;-63
2021/07/12 07:04:18;;;;;;;10.60;7.57;;;;;;;20.32;73.56;100111.09;5044456;28;20060;-62
2021/07/12 07:06:44;;;;;;;9.93;6.80;;;;;;;20.31;74.89;100111.22;5031657;28;20054;-62
2021/07/12 07:09:11;;;;;;;7.15;6.18;;;;;;;20.29;75.26;100102.47;5047145;28;20078;-61
2021/07/12 07:11:37;;;;;;;7.90;7.10;;;;;;;20.18;74.41;100097.22;5053559;28;20068;-61
2021/07/12 07:14:04;;;;;;;6.68;6.00;;;;;;;20.04;76.32;100093.09;5056474;28;20047;-61
2021/07/12 07:16:30;;;;;;;6.50;5.90;;;;;;;20.03;76.94;100093.22;5049455;28;20056;-64
2021/07/12 07:18:57;;;;;;;13.55;6.70;;;;;;;20.02;76.51;100097.75;5048817;28;20136;-61
2021/07/12 07:21:24;;;;;;;7.85;6.88;;;;;;;19.96;77.18;100104.56;5046865;28;20053;-61
2021/07/12 07:23:51;;;;;;;8.18;6.13;;;;;;;20.02;76.91;100099.59;5058725;28;20078;-61
2021/07/12 07:26:17;;;;;;;6.57;5.85;;;;;;;20.04;76.56;100108.38;5055221;28;20048;-61
2021/07/12 07:28:44;;;;;;;9.10;5.93;;;;;;;20.06;77.58;100101.03;5064481;28;20059;-62
2021/07/12 07:31:10;;;;;;;7.82;6.38;;;;;;;20.13;77.13;100096.81;5056661;28;20064;-60
2021/07/12 07:33:37;;;;;;;6.72;5.88;;;;;;;20.20;77.08;100103.28;5061783;28;20048;-61
2021/07/12 07:36:04;;;;;;;8.77;5.75;;;;;;;20.25;76.43;100098.34;5046761;28;20051;-61
2021/07/12 07:38:31;;;;;;;6.43;5.82;;;;;;;20.23;76.12;100094.94;5050687;28;20874;-61
2021/07/12 07:40:58;;;;;;;7.35;5.97;;;;;;;20.24;77.06;100089.44;5061628;28;20056;-61
2021/07/12 07:43:24;;;;;;;7.60;6.05;;;;;;;20.36;77.30;100082.09;5061655;28;20496;-61
2021/07/12 07:45:51;;;;;;;10.20;9.07;;;;;;;20.46;76.05;100080.25;5045881;28;20431;-62
2021/07/12 07:48:18;;;;;;;9.40;5.97;;;;;;;20.54;74.52;100080.41;5052960;28;20052;-61
2021/07/12 07:50:45;;;;;;;7.68;5.70;;;;;;;20.70;75.18;100084.34;5049200;28;20045;-61
2021/07/12 07:53:12;;;;;;;7.53;5.63;;;;;;;20.93;74.88;100078.50;5053250;28;20052;-61
2021/07/12 07:55:40;;;;;;;7.43;5.35;;;;;;;21.10;74.79;100076.84;5053269;28;20060;-61
2021/07/12 07:58:06;;;;;;;7.35;5.43;;;;;;;21.24;73.23;100067.50;5052406;28;20084;-61
2021/07/12 08:00:34;;;;;;;7.22;5.03;;;;;;;21.40;72.38;100066.88;5064711;28;20468;-61
2021/07/12 08:03:00;;;;;;;7.40;4.90;;;;;;;21.62;71.95;100059.22;5052384;28;20084;-61
2021/07/12 08:05:27;;;;;;;6.10;5.20;;;;;;;21.72;70.31;100056.50;5060530;28;20401;-61
2021/07/12 08:08:18;;;;;;;5.82;5.30;;;;;;;21.71;70.62;100049.41;5057589;28;20074;-61
2021/07/12 08:10:44;;;;;;;6.20;4.88;;;;;;;21.94;69.82;100047.94;5054773;28;20080;-62
2021/07/12 08:13:12;;;;;;;7.03;4.72;;;;;;;22.12;68.38;100033.66;5055742;28;20049;-62
2021/07/12 08:15:39;;;;;;;7.47;5.03;;;;;;;22.36;66.63;100039.25;5056452;28;20562;-61
2021/07/12 08:18:06;;;;;;;5.22;4.60;;;;;;;22.51;66.27;100037.69;5056987;28;20090;-61
2021/07/12 08:20:33;;;;;;;7.03;4.38;;;;;;;22.63;65.11;100030.19;5057493;28;20401;-62
2021/07/12 08:22:59;;;;;;;7.80;4.38;;;;;;;22.69;64.72;100022.31;5055125;28;20079;-60
2021/07/12 08:25:26;;;;;;;5.60;3.92;;;;;;;22.67;65.00;100018.91;5057168;28;20056;-62
2021/07/12 08:27:53;;;;;;;7.15;4.60;;;;;;;22.82;64.72;100021.94;5054258;28;20104;-62
2021/07/12 08:30:21;;;;;;;5.03;4.38;;;;;;;22.84;63.30;100017.19;5050861;28;20060;-62
2021/07/12 08:32:48;;;;;;;5.30;4.50;;;;;;;22.84;64.29;100008.25;5056510;28;20048;-63
2021/07/12 08:35:15;;;;;;;6.68;3.75;;;;;;;22.93;64.46;100000.06;5043854;28;20519;-62
2021/07/12 08:37:49;;;;;;;6.82;3.80;;;;;;;23.01;63.07;99991.13;5047410;28;20049;-61
2021/07/12 08:40:17;;;;;;;5.75;4.00;;;;;;;23.00;63.12;99982.19;5058316;28;20132;-62
2021/07/12 08:42:44;;;;;;;5.20;3.55;;;;;;;23.13;62.42;99984.47;5059428;28;20091;-62
2021/07/12 08:45:11;;;;;;;6.93;3.70;;;;;;;23.13;61.57;99976.34;5045470;28;20064;-61
2021/07/12 08:47:37;;;;;;;6.22;3.80;;;;;;;23.17;61.44;99971.44;5061273;28;20053;-62
2021/07/12 08:50:05;;;;;;;4.10;3.40;;;;;;;23.26;61.96;99963.22;5046129;28;20056;-62
2021/07/12 08:52:31;;;;;;;6.68;3.30;;;;;;;23.36;60.93;99968.47;5049679;28;20044;-61
2021/07/12 08:55:01;;;;;;;6.78;3.45;;;;;;;23.38;58.94;99961.91;5053401;28;20118;-61
2021/07/12 08:57:28;;;;;;;3.85;2.75;;;;;;;23.39;60.04;99958.19;5056550;28;20067;-61
2021/07/12 08:59:56;;;;;;;6.00;3.25;;;;;;;23.60;59.96;99956.94;5056086;28;20053;-63
2021/07/12 09:02:23;;;;;;;4.40;3.28;;;;;;;23.57;58.86;99951.84;5042918;28;20045;-60
2021/07/12 09:04:53;;;;;;;3.88;3.10;;;;;;;23.48;58.99;99956.34;5058385;28;20075;-61
2021/07/12 09:07:23;;;;;;;3.85;2.60;;;;;;;23.43;59.47;99947.91;5051519;28;20071;-61
2021/07/12 09:10:06;;;;;;;4.38;2.83;;;;;;;23.47;59.01;99951.09;5050040;28;20136;-62
2021/07/12 09:12:41;;;;;;;3.10;2.80;;;;;;;23.43;59.62;99950.63;5056427;28;21050;-61
2021/07/12 09:15:10;;;;;;;4.88;2.92;;;;;;;23.48;59.82;99950.94;5059768;28;20180;-62
2021/07/12 09:17:48;;;;;;;3.53;2.63;;;;;;;23.49;60.57;99963.44;5055656;28;20059;-61
2021/07/12 09:20:32;;;;;;;4.00;3.00;;;;;;;23.31;59.74;99950.06;5043820;28;20049;-62
2021/07/12 09:23:20;;;;;;;5.20;2.58;;;;;;;23.25;60.30;99949.88;5053876;28;20161;-63
2021/07/12 09:26:04;;;;;;;4.07;2.67;;;;;;;23.26;59.74;99949.72;5053824;28;20063;-62
2021/07/12 09:28:45;;;;;;;3.95;3.08;;;;;;;23.31;59.85;99944.66;5059497;28;20473;-63
2021/07/12 09:31:28;;;;;;;6.45;3.15;;;;;;;23.31;60.21;99941.94;5055019;28;20049;-62
2021/07/12 09:33:58;;;;;;;4.50;2.65;;;;;;;23.36;59.67;99945.00;5038565;28;20085;-62
2021/07/12 09:36:32;;;;;;;3.08;2.58;;;;;;;23.43;58.33;99935.25;5051777;28;20045;-62
2021/07/12 09:39:20;;;;;;;5.28;2.95;;;;;;;23.60;58.71;99928.06;5055356;28;20048;-63
2021/07/12 09:41:59;;;;;;;3.42;2.70;;;;;;;23.64;58.35;99923.13;5055490;28;20096;-63
2021/07/12 09:44:28;;;;;;;4.20;2.83;;;;;;;23.73;58.46;99927.56;5056262;28;20103;-65
2021/07/12 09:47:03;;;;;;;3.50;2.63;;;;;;;23.72;57.64;99929.41;5047372;28;20139;-62
2021/07/12 09:49:29;;;;;;;3.55;2.80;;;;;;;23.81;57.63;99932.94;5050474;28;20546;-62
2021/07/12 09:52:01;;;;;;;2.83;2.42;;;;;;;23.91;56.54;99936.34;5043852;28;20049;-62
2021/07/12 09:54:33;;;;;;;4.10;2.53;;;;;;;24.01;55.86;99942.44;5049931;28;20052;-62
2021/07/12 09:57:10;;;;;;;4.65;2.42;;;;;;;24.04;55.13;99933.97;5045708;28;20049;-63
2021/07/12 09:59:52;;;;;;;3.08;2.80;;;;;;;24.06;55.72;99933.81;5043733;28;20051;-64
2021/07/12 10:02:21;;;;;;;4.72;2.88;;;;;;;24.13;55.75;99926.69;5041685;28;20044;-63
2021/07/12 10:04:50;;;;;;;4.60;2.90;;;;;;;24.21;54.77;99923.16;5044388;28;20049;-62
2021/07/12 10:07:17;;;;;;;4.80;2.63;;;;;;;24.14;54.32;99915.72;5049580;28;20488;-60
2021/07/12 10:09:44;;;;;;;3.00;2.80;;;;;;;24.16;54.80;99920.94;5046473;28;20056;-61
2021/07/12 10:12:11;;;;;;;3.15;2.85;;;;;;;24.29;54.27;99907.78;5046113;28;20484;-61
2021/07/12 10:14:38;;;;;;;2.92;2.72;;;;;;;24.34;53.89;99896.44;5042107;28;20038;-62
2021/07/12 10:17:07;;;;;;;2.97;2.72;;;;;;;24.32;53.85;99880.38;5042092;28;20516;-62
2021/07/12 10:19:33;;;;;;;5.17;3.00;;;;;;;24.21;54.89;99874.44;5046665;28;20531;-62
2021/07/12 10:22:00;;;;;;;4.43;2.70;;;;;;;24.10;54.63;99864.81;5048522;28;20514;-61
2021/07/12 10:24:33;;;;;;;2.83;2.60;;;;;;;24.08;54.99;99867.69;5048095;28;20513;-61
2021/07/12 10:27:02;;;;;;;3.42;2.45;;;;;;;24.21;54.43;99861.78;5045457;28;20049;-61
2021/07/12 10:29:35;;;;;;;3.42;2.50;;;;;;;24.37;54.51;99863.63;5054915;28;20510;-62
2021/07/12 10:32:12;;;;;;;2.53;2.00;;;;;;;24.45;53.30;99866.28;5051988;28;20056;-61
2021/07/12 10:34:43;;;;;;;2.83;2.20;;;;;;;24.62;51.62;99859.81;5067363;28;20091;-61
2021/07/12 10:37:23;;;;;;;2.85;2.25;;;;;;;24.71;51.68;99850.63;5066453;28;20123;-60
2021/07/12 10:40:06;;;;;;;2.10;1.90;;;;;;;24.92;51.16;99850.03;5039515;28;20040;-61
2021/07/12 10:42:41;;;;;;;1.98;1.77;;;;;;;24.97;49.51;99854.94;5056254;28;20041;-61
2021/07/12 10:45:23;;;;;;;4.65;2.10;;;;;;;24.94;50.53;99861.56;5053433;28;20508;-62
2021/07/12 10:48:04;;;;;;;2.42;1.83;;;;;;;24.82;49.74;99861.09;5063482;28;20056;-62
2021/07/12 10:50:45;;;;;;;2.05;1.92;;;;;;;24.79;50.57;99869.56;5057731;28;20049;-61
2021/07/12 10:53:12;;;;;;;1.75;1.65;;;;;;;24.85;51.48;99880.72;5044659;28;20049;-61
2021/07/12 10:55:38;;;;;;;2.00;1.90;;;;;;;24.82;50.83;99871.06;5050519;28;20053;-61
2021/07/12 10:58:26;;;;;;;2.70;2.20;;;;;;;24.76;50.60;99856.34;5047151;28;20080;-59
2021/07/12 11:00:56;;;;;;;3.00;1.85;;;;;;;24.81;50.93;99853.97;5045989;28;20045;-61
2021/07/12 11:03:38;;;;;;;3.13;2.25;;;;;;;24.93;51.28;99859.00;5040890;28;22170;-60
2021/07/12 11:06:06;;;;;;;2.35;1.95;;;;;;;25.04;50.39;99861.31;5047611;28;20059;-60
2021/07/12 11:08:49;;;;;;;3.15;2.17;;;;;;;25.09;50.18;99861.66;5036540;28;20124;-60
2021/07/12 11:11:18;;;;;;;3.15;1.90;;;;;;;25.14;50.74;99860.09;5046892;28;20049;-60
2021/07/12 11:14:02;;;;;;;3.75;1.92;;;;;;;25.32;49.37;99862.53;5045450;28;20082;-60
2021/07/12 11:16:45;;;;;;;2.42;2.17;;;;;;;25.49;47.77;99866.81;5037851;28;21635;-59
2021/07/12 11:19:31;;;;;;;2.28;2.10;;;;;;;25.60;48.11;99859.28;5042566;28;20057;-60
2021/07/12 11:22:12;;;;;;;2.45;2.10;;;;;;;25.60;48.57;99860.13;5039308;28;20083;-60
2021/07/12 11:25:10;;;;;;;2.30;2.10;;;;;;;25.53;48.09;99859.97;5032414;28;20143;-60
2021/07/12 11:27:41;;;;;;;2.97;2.10;;;;;;;25.44;48.79;99866.50;5048650;28;20049;-60
2021/07/12 11:30:28;;;;;;;2.40;1.85;;;;;;;25.31;49.14;99873.53;5043195;28;20037;-61